sensor_id;sensor_type;location;lat;lon;timestamp;P1;durP1;ratioP1;P2;durP2;ratioP2
16139;SDS011;8175;49.326;12.690;2023-04-03T00:02:07;3.27;;;2.67;;
16139;SDS011;8175;49.326;12.690;2023-04-03T00:04:33;5.47;;;2.43;;
16139;SDS011;8175;49.326;12.690;2023-04-03T00:06:58;4.13;;;3.10;;
16139;SDS011;8175;49.326;12.690;2023-04-03T00:09:24;3.30;;;2.90;;
16139;SDS011;8175;49.326;12.690;2023-04-03T00:11:50;3.80;;;3.20;;
16139;SDS011;8175;49.326;12.690;2023-04-03T00:14:15;4.03;;;2.77;;
16139;SDS011;8175;49.326;12.690;2023-04-03T00:16:41;3.50;;;3.20;;
16139;SDS011;8175;49.326;12.690;2023-04-03T00:19:07;4.40;;;3.03;;
16139;SDS011;8175;49.326;12.690;2023-04-03T00:21:33;3.10;;;2.80;;
16139;SDS011;8175;49.326;12.690;2023-04-03T00:23:58;4.93;;;3.27;;
16139;SDS011;8175;49.326;12.690;2023-04-03T00:26:24;4.53;;;3.50;;
16139;SDS011;8175;49.326;12.690;2023-04-03T00:28:50;3.20;;;2.83;;
16139;SDS011;8175;49.326;12.690;2023-04-03T00:31:16;3.57;;;3.27;;
16139;SDS011;8175;49.326;12.690;2023-04-03T00:33:41;5.50;;;3.37;;
16139;SDS011;8175;49.326;12.690;2023-04-03T00:36:10;3.77;;;3.37;;
16139;SDS011;8175;49.326;12.690;2023-04-03T00:38:37;4.53;;;3.87;;
16139;SDS011;8175;49.326;12.690;2023-04-03T00:41:03;3.33;;;3.03;;
16139;SDS011;8175;49.326;12.690;2023-04-03T00:43:29;3.57;;;2.77;;
16139;SDS011;8175;49.326;12.690;2023-04-03T00:45:56;4.90;;;3.17;;
16139;SDS011;8175;49.326;12.690;2023-04-03T00:48:25;4.13;;;2.80;;
16139;SDS011;8175;49.326;12.690;2023-04-03T00:50:57;4.47;;;3.30;;
16139;SDS011;8175;49.326;12.690;2023-04-03T00:53:26;2.97;;;2.67;;
16139;SDS011;8175;49.326;12.690;2023-04-03T00:55:57;3.30;;;2.97;;
16139;SDS011;8175;49.326;12.690;2023-04-03T00:58:33;3.30;;;2.57;;
16139;SDS011;8175;49.326;12.690;2023-04-03T05:35:48;6.43;;;5.77;;
16139;SDS011;8175;49.326;12.690;2023-04-03T05:38:14;7.43;;;6.10;;
16139;SDS011;8175;49.326;12.690;2023-04-03T05:40:40;7.53;;;5.30;;
16139;SDS011;8175;49.326;12.690;2023-04-03T05:43:05;6.40;;;5.20;;
16139;SDS011;8175;49.326;12.690;2023-04-03T05:45:31;6.13;;;4.93;;
16139;SDS011;8175;49.326;12.690;2023-04-03T05:47:57;7.07;;;5.00;;
16139;SDS011;8175;49.326;12.690;2023-04-03T05:59:13;5.37;;;4.87;;
16139;SDS011;8175;49.326;12.690;2023-04-03T06:01:39;8.50;;;5.30;;
16139;SDS011;8175;49.326;12.690;2023-04-03T06:04:05;5.93;;;5.20;;
16139;SDS011;8175;49.326;12.690;2023-04-03T06:06:50;6.27;;;3.93;;
16139;SDS011;8175;49.326;12.690;2023-04-03T06:09:23;6.17;;;4.20;;
16139;SDS011;8175;49.326;12.690;2023-04-03T06:11:51;5.97;;;3.70;;
16139;SDS011;8175;49.326;12.690;2023-04-03T06:14:18;6.37;;;3.80;;
16139;SDS011;8175;49.326;12.690;2023-04-03T06:16:43;4.40;;;3.97;;
16139;SDS011;8175;49.326;12.690;2023-04-03T06:19:10;4.77;;;4.00;;
16139;SDS011;8175;49.326;12.690;2023-04-03T06:21:36;4.60;;;3.20;;
16139;SDS011;8175;49.326;12.690;2023-04-03T06:24:03;3.37;;;3.07;;
16139;SDS011;8175;49.326;12.690;2023-04-03T06:26:29;5.40;;;3.20;;
16139;SDS011;8175;49.326;12.690;2023-04-03T06:28:55;4.47;;;3.57;;
16139;SDS011;8175;49.326;12.690;2023-04-03T06:31:21;4.57;;;3.73;;
16139;SDS011;8175;49.326;12.690;2023-04-03T06:33:47;4.10;;;3.30;;
16139;SDS011;8175;49.326;12.690;2023-04-03T06:36:13;3.27;;;2.97;;
16139;SDS011;8175;49.326;12.690;2023-04-03T06:38:38;3.83;;;3.10;;
16139;SDS011;8175;49.326;12.690;2023-04-03T06:41:04;3.60;;;3.30;;
16139;SDS011;8175;49.326;12.690;2023-04-03T06:43:30;3.40;;;3.10;;
16139;SDS011;8175;49.326;12.690;2023-04-03T06:45:58;3.30;;;3.10;;
16139;SDS011;8175;49.326;12.690;2023-04-03T06:48:24;4.67;;;3.40;;
16139;SDS011;8175;49.326;12.690;2023-04-03T06:50:50;5.53;;;2.60;;
16139;SDS011;8175;49.326;12.690;2023-04-03T06:53:15;5.77;;;3.00;;
16139;SDS011;8175;49.326;12.690;2023-04-03T06:55:41;4.63;;;3.30;;
16139;SDS011;8175;49.326;12.690;2023-04-03T06:58:07;2.70;;;2.50;;
16139;SDS011;8175;49.326;12.690;2023-04-03T07:00:33;5.70;;;2.67;;
16139;SDS011;8175;49.326;12.690;2023-04-03T07:02:58;3.73;;;2.80;;
16139;SDS011;8175;49.326;12.690;2023-04-03T07:05:25;6.67;;;3.00;;
16139;SDS011;8175;49.326;12.690;2023-04-03T07:07:51;3.60;;;2.53;;
16139;SDS011;8175;49.326;12.690;2023-04-03T07:10:17;4.10;;;2.80;;
16139;SDS011;8175;49.326;12.690;2023-04-03T07:12:43;2.60;;;2.40;;
16139;SDS011;8175;49.326;12.690;2023-04-03T07:15:10;5.20;;;2.70;;
16139;SDS011;8175;49.326;12.690;2023-04-03T07:17:37;2.23;;;2.13;;
16139;SDS011;8175;49.326;12.690;2023-04-03T07:20:03;2.87;;;2.33;;
16139;SDS011;8175;49.326;12.690;2023-04-03T07:22:30;3.57;;;2.10;;
16139;SDS011;8175;49.326;12.690;2023-04-03T07:24:55;2.20;;;2.00;;
16139;SDS011;8175;49.326;12.690;2023-04-03T07:27:21;3.07;;;2.30;;
16139;SDS011;8175;49.326;12.690;2023-04-03T07:29:47;2.40;;;2.20;;
16139;SDS011;8175;49.326;12.690;2023-04-03T07:32:15;5.97;;;2.40;;
16139;SDS011;8175;49.326;12.690;2023-04-03T07:34:41;2.57;;;1.60;;
16139;SDS011;8175;49.326;12.690;2023-04-03T07:37:07;3.40;;;1.40;;
16139;SDS011;8175;49.326;12.690;2023-04-03T07:39:34;3.87;;;1.57;;
16139;SDS011;8175;49.326;12.690;2023-04-03T07:41:59;1.77;;;1.27;;
16139;SDS011;8175;49.326;12.690;2023-04-03T07:44:25;2.77;;;1.37;;
16139;SDS011;8175;49.326;12.690;2023-04-03T07:46:51;1.50;;;1.20;;
16139;SDS011;8175;49.326;12.690;2023-04-03T07:49:17;1.57;;;1.33;;
16139;SDS011;8175;49.326;12.690;2023-04-03T07:51:43;1.83;;;1.10;;
16139;SDS011;8175;49.326;12.690;2023-04-03T07:54:10;1.50;;;1.10;;
16139;SDS011;8175;49.326;12.690;2023-04-03T07:56:36;1.47;;;0.90;;
16139;SDS011;8175;49.326;12.690;2023-04-03T07:59:01;2.83;;;1.43;;
16139;SDS011;8175;49.326;12.690;2023-04-03T08:01:27;3.17;;;1.70;;
16139;SDS011;8175;49.326;12.690;2023-04-03T08:03:53;2.47;;;1.30;;
16139;SDS011;8175;49.326;12.690;2023-04-03T08:06:19;3.80;;;1.57;;
16139;SDS011;8175;49.326;12.690;2023-04-03T08:08:44;1.27;;;1.10;;
16139;SDS011;8175;49.326;12.690;2023-04-03T08:11:10;3.30;;;1.23;;
16139;SDS011;8175;49.326;12.690;2023-04-03T08:13:36;2.03;;;1.10;;
16139;SDS011;8175;49.326;12.690;2023-04-03T08:16:09;2.20;;;1.27;;
16139;SDS011;8175;49.326;12.690;2023-04-03T08:18:43;2.37;;;1.13;;
16139;SDS011;8175;49.326;12.690;2023-04-03T08:21:09;1.53;;;0.83;;
16139;SDS011;8175;49.326;12.690;2023-04-03T08:23:36;1.87;;;1.00;;
16139;SDS011;8175;49.326;12.690;2023-04-03T08:26:12;1.93;;;1.23;;
16139;SDS011;8175;49.326;12.690;2023-04-03T08:28:42;3.23;;;1.10;;
16139;SDS011;8175;49.326;12.690;2023-04-03T08:31:11;1.10;;;0.90;;
16139;SDS011;8175;49.326;12.690;2023-04-03T08:33:43;0.80;;;0.80;;
16139;SDS011;8175;49.326;12.690;2023-04-03T08:36:20;1.23;;;1.00;;
16139;SDS011;8175;49.326;12.690;2023-04-03T08:38:48;1.17;;;0.90;;
16139;SDS011;8175;49.326;12.690;2023-04-03T08:41:16;1.77;;;0.93;;
16139;SDS011;8175;49.326;12.690;2023-04-03T08:52:19;1.67;;;1.00;;
16139;SDS011;8175;49.326;12.690;2023-04-03T08:55:20;1.57;;;1.07;;
16139;SDS011;8175;49.326;12.690;2023-04-03T08:58:26;1.07;;;0.80;;
16139;SDS011;8175;49.326;12.690;2023-04-03T09:00:59;3.47;;;0.90;;
16139;SDS011;8175;49.326;12.690;2023-04-03T09:03:29;1.97;;;0.97;;
16139;SDS011;8175;49.326;12.690;2023-04-03T09:06:04;1.50;;;1.17;;
16139;SDS011;8175;49.326;12.690;2023-04-03T09:13:57;1.10;;;1.00;;
16139;SDS011;8175;49.326;12.690;2023-04-03T09:21:50;1.70;;;0.80;;
16139;SDS011;8175;49.326;12.690;2023-04-03T09:24:16;1.17;;;1.00;;
16139;SDS011;8175;49.326;12.690;2023-04-03T09:26:47;1.33;;;1.00;;
16139;SDS011;8175;49.326;12.690;2023-04-03T09:29:17;2.83;;;1.10;;
16139;SDS011;8175;49.326;12.690;2023-04-03T09:31:46;1.20;;;0.90;;
16139;SDS011;8175;49.326;12.690;2023-04-03T09:34:18;1.47;;;0.83;;
16139;SDS011;8175;49.326;12.690;2023-04-03T09:37:01;1.10;;;0.93;;
16139;SDS011;8175;49.326;12.690;2023-04-03T09:39:48;1.07;;;0.97;;
16139;SDS011;8175;49.326;12.690;2023-04-03T09:42:24;1.47;;;1.20;;
16139;SDS011;8175;49.326;12.690;2023-04-03T09:44:54;1.73;;;1.00;;
16139;SDS011;8175;49.326;12.690;2023-04-03T09:50:18;0.83;;;0.80;;
16139;SDS011;8175;49.326;12.690;2023-04-03T09:52:46;1.17;;;0.90;;
16139;SDS011;8175;49.326;12.690;2023-04-03T09:55:14;1.63;;;1.10;;
16139;SDS011;8175;49.326;12.690;2023-04-03T09:57:46;3.00;;;1.27;;
16139;SDS011;8175;49.326;12.690;2023-04-03T10:02:51;2.10;;;0.87;;
16139;SDS011;8175;49.326;12.690;2023-04-03T10:10:44;2.50;;;1.30;;
16139;SDS011;8175;49.326;12.690;2023-04-03T10:13:15;0.80;;;0.80;;
16139;SDS011;8175;49.326;12.690;2023-04-03T10:15:55;1.97;;;1.17;;
16139;SDS011;8175;49.326;12.690;2023-04-03T10:21:06;2.83;;;1.13;;
16139;SDS011;8175;49.326;12.690;2023-04-03T10:26:17;3.03;;;1.70;;
16139;SDS011;8175;49.326;12.690;2023-04-03T10:34:20;1.73;;;1.07;;
16139;SDS011;8175;49.326;12.690;2023-04-03T10:53:08;1.10;;;1.00;;
16139;SDS011;8175;49.326;12.690;2023-04-03T10:56:03;2.37;;;1.70;;
16139;SDS011;8175;49.326;12.690;2023-04-03T10:58:48;1.67;;;1.10;;
16139;SDS011;8175;49.326;12.690;2023-04-03T11:01:44;2.67;;;1.30;;
16139;SDS011;8175;49.326;12.690;2023-04-03T11:04:12;2.87;;;1.20;;
16139;SDS011;8175;49.326;12.690;2023-04-03T11:06:45;2.67;;;1.20;;
16139;SDS011;8175;49.326;12.690;2023-04-03T11:09:19;1.53;;;1.30;;
16139;SDS011;8175;49.326;12.690;2023-04-03T11:11:51;1.47;;;1.10;;
16139;SDS011;8175;49.326;12.690;2023-04-03T11:14:35;1.83;;;1.17;;
16139;SDS011;8175;49.326;12.690;2023-04-03T11:25:22;2.43;;;1.80;;
16139;SDS011;8175;49.326;12.690;2023-04-03T11:28:00;1.10;;;0.97;;
16139;SDS011;8175;49.326;12.690;2023-04-03T11:30:42;1.17;;;1.00;;
16139;SDS011;8175;49.326;12.690;2023-04-03T11:38:55;2.07;;;1.10;;
16139;SDS011;8175;49.326;12.690;2023-04-03T11:41:33;3.23;;;1.10;;
16139;SDS011;8175;49.326;12.690;2023-04-03T11:52:53;1.07;;;0.93;;
16139;SDS011;8175;49.326;12.690;2023-04-03T12:08:29;2.53;;;0.93;;
16139;SDS011;8175;49.326;12.690;2023-04-03T12:16:42;1.10;;;1.00;;
16139;SDS011;8175;49.326;12.690;2023-04-03T12:35:10;2.23;;;1.67;;
16139;SDS011;8175;49.326;12.690;2023-04-03T12:37:48;1.97;;;1.17;;
16139;SDS011;8175;49.326;12.690;2023-04-03T12:45:47;1.27;;;1.07;;
16139;SDS011;8175;49.326;12.690;2023-04-03T12:48:56;3.20;;;1.40;;
16139;SDS011;8175;49.326;12.690;2023-04-03T12:54:43;1.90;;;1.30;;
16139;SDS011;8175;49.326;12.690;2023-04-03T12:59:48;3.00;;;1.40;;
16139;SDS011;8175;49.326;12.690;2023-04-03T13:02:30;3.50;;;1.20;;
16139;SDS011;8175;49.326;12.690;2023-04-03T13:04:59;2.27;;;1.40;;
16139;SDS011;8175;49.326;12.690;2023-04-03T13:07:33;1.43;;;1.00;;
16139;SDS011;8175;49.326;12.690;2023-04-03T13:12:32;2.33;;;0.90;;
16139;SDS011;8175;49.326;12.690;2023-04-03T13:15:00;3.43;;;1.30;;
16139;SDS011;8175;49.326;12.690;2023-04-03T13:17:39;2.27;;;1.30;;
16139;SDS011;8175;49.326;12.690;2023-04-03T13:20:10;2.40;;;1.30;;
16139;SDS011;8175;49.326;12.690;2023-04-03T13:22:46;2.37;;;1.47;;
16139;SDS011;8175;49.326;12.690;2023-04-03T13:25:16;2.03;;;1.40;;
16139;SDS011;8175;49.326;12.690;2023-04-03T13:27:43;1.30;;;1.20;;
16139;SDS011;8175;49.326;12.690;2023-04-03T13:30:19;1.20;;;1.10;;
16139;SDS011;8175;49.326;12.690;2023-04-03T13:32:48;1.70;;;1.40;;
16139;SDS011;8175;49.326;12.690;2023-04-03T13:35:24;1.57;;;1.43;;
16139;SDS011;8175;49.326;12.690;2023-04-03T13:38:26;2.43;;;1.60;;
16139;SDS011;8175;49.326;12.690;2023-04-03T13:40:51;1.27;;;1.17;;
16139;SDS011;8175;49.326;12.690;2023-04-03T13:43:20;1.70;;;1.20;;
16139;SDS011;8175;49.326;12.690;2023-04-03T13:45:56;1.10;;;1.00;;
16139;SDS011;8175;49.326;12.690;2023-04-03T13:48:50;1.53;;;1.10;;
16139;SDS011;8175;49.326;12.690;2023-04-03T13:51:19;3.03;;;1.50;;
16139;SDS011;8175;49.326;12.690;2023-04-03T13:56:26;2.00;;;1.03;;
16139;SDS011;8175;49.326;12.690;2023-04-03T13:59:06;1.53;;;1.33;;
16139;SDS011;8175;49.326;12.690;2023-04-03T14:04:29;1.13;;;0.90;;
16139;SDS011;8175;49.326;12.690;2023-04-03T14:06:57;2.00;;;1.30;;
16139;SDS011;8175;49.326;12.690;2023-04-03T14:09:23;1.73;;;1.00;;
16139;SDS011;8175;49.326;12.690;2023-04-03T14:11:52;2.73;;;1.73;;
16139;SDS011;8175;49.326;12.690;2023-04-03T14:14:21;2.73;;;1.37;;
16139;SDS011;8175;49.326;12.690;2023-04-03T14:16:56;1.70;;;1.03;;
16139;SDS011;8175;49.326;12.690;2023-04-03T14:19:26;2.37;;;1.37;;
16139;SDS011;8175;49.326;12.690;2023-04-03T14:21:57;2.57;;;1.50;;
16139;SDS011;8175;49.326;12.690;2023-04-03T14:24:24;2.53;;;1.60;;
16139;SDS011;8175;49.326;12.690;2023-04-03T14:26:50;2.93;;;1.50;;
16139;SDS011;8175;49.326;12.690;2023-04-03T14:29:18;2.47;;;2.20;;
16139;SDS011;8175;49.326;12.690;2023-04-03T14:31:45;2.70;;;1.50;;
16139;SDS011;8175;49.326;12.690;2023-04-03T14:34:12;2.40;;;1.40;;
16139;SDS011;8175;49.326;12.690;2023-04-03T14:36:41;4.60;;;1.27;;
16139;SDS011;8175;49.326;12.690;2023-04-03T14:39:11;2.23;;;1.20;;
16139;SDS011;8175;49.326;12.690;2023-04-03T14:41:42;2.87;;;1.40;;
16139;SDS011;8175;49.326;12.690;2023-04-03T14:44:08;1.33;;;1.17;;
16139;SDS011;8175;49.326;12.690;2023-04-03T14:46:35;1.93;;;0.90;;
16139;SDS011;8175;49.326;12.690;2023-04-03T14:49:03;2.63;;;1.70;;
16139;SDS011;8175;49.326;12.690;2023-04-03T14:51:37;1.87;;;1.37;;
16139;SDS011;8175;49.326;12.690;2023-04-03T14:54:03;1.33;;;0.97;;
16139;SDS011;8175;49.326;12.690;2023-04-03T14:56:30;2.43;;;1.30;;
16139;SDS011;8175;49.326;12.690;2023-04-03T14:58:57;2.27;;;1.23;;
16139;SDS011;8175;49.326;12.690;2023-04-03T15:01:25;2.57;;;1.20;;
16139;SDS011;8175;49.326;12.690;2023-04-03T15:03:51;3.97;;;1.83;;
16139;SDS011;8175;49.326;12.690;2023-04-03T15:06:17;4.93;;;1.27;;
16139;SDS011;8175;49.326;12.690;2023-04-03T15:08:44;3.40;;;1.63;;
16139;SDS011;8175;49.326;12.690;2023-04-03T15:11:11;2.93;;;1.87;;
16139;SDS011;8175;49.326;12.690;2023-04-03T15:13:38;2.90;;;1.47;;
16139;SDS011;8175;49.326;12.690;2023-04-03T15:16:05;3.10;;;1.27;;
16139;SDS011;8175;49.326;12.690;2023-04-03T15:18:37;2.77;;;1.57;;
16139;SDS011;8175;49.326;12.690;2023-04-03T15:21:04;1.63;;;1.53;;
16139;SDS011;8175;49.326;12.690;2023-04-03T15:23:29;1.53;;;1.40;;
16139;SDS011;8175;49.326;12.690;2023-04-03T15:25:56;2.70;;;1.47;;
16139;SDS011;8175;49.326;12.690;2023-04-03T15:31:04;2.70;;;1.83;;
16139;SDS011;8175;49.326;12.690;2023-04-03T15:33:31;3.87;;;1.83;;
16139;SDS011;8175;49.326;12.690;2023-04-03T15:35:58;1.70;;;1.60;;
16139;SDS011;8175;49.326;12.690;2023-04-03T15:38:24;1.93;;;1.67;;
16139;SDS011;8175;49.326;12.690;2023-04-03T15:40:50;3.80;;;1.47;;
16139;SDS011;8175;49.326;12.690;2023-04-03T15:43:15;1.77;;;1.67;;
16139;SDS011;8175;49.326;12.690;2023-04-03T15:45:41;5.00;;;2.00;;
16139;SDS011;8175;49.326;12.690;2023-04-03T15:48:08;3.20;;;2.07;;
16139;SDS011;8175;49.326;12.690;2023-04-03T15:50:35;3.03;;;2.10;;
16139;SDS011;8175;49.326;12.690;2023-04-03T15:53:01;3.20;;;2.10;;
16139;SDS011;8175;49.326;12.690;2023-04-03T15:55:31;2.20;;;1.77;;
16139;SDS011;8175;49.326;12.690;2023-04-03T15:57:58;1.73;;;1.60;;
16139;SDS011;8175;49.326;12.690;2023-04-03T16:00:25;2.23;;;1.83;;
16139;SDS011;8175;49.326;12.690;2023-04-03T16:02:52;1.80;;;1.70;;
16139;SDS011;8175;49.326;12.690;2023-04-03T16:05:22;1.60;;;1.50;;
16139;SDS011;8175;49.326;12.690;2023-04-03T16:07:47;1.90;;;1.63;;
16139;SDS011;8175;49.326;12.690;2023-04-03T16:10:14;2.10;;;2.00;;
16139;SDS011;8175;49.326;12.690;2023-04-03T16:12:41;2.03;;;1.60;;
16139;SDS011;8175;49.326;12.690;2023-04-03T16:15:07;1.57;;;1.47;;
16139;SDS011;8175;49.326;12.690;2023-04-03T16:17:33;5.63;;;1.43;;
16139;SDS011;8175;49.326;12.690;2023-04-03T16:20:00;2.17;;;1.97;;
16139;SDS011;8175;49.326;12.690;2023-04-03T16:22:28;2.27;;;1.67;;
16139;SDS011;8175;49.326;12.690;2023-04-03T16:24:54;1.53;;;1.43;;
16139;SDS011;8175;49.326;12.690;2023-04-03T16:27:20;1.87;;;1.77;;
16139;SDS011;8175;49.326;12.690;2023-04-03T16:29:46;1.30;;;1.20;;
16139;SDS011;8175;49.326;12.690;2023-04-03T16:32:12;3.53;;;1.70;;
16139;SDS011;8175;49.326;12.690;2023-04-03T16:34:39;2.77;;;1.83;;
16139;SDS011;8175;49.326;12.690;2023-04-03T16:37:05;2.40;;;1.70;;
16139;SDS011;8175;49.326;12.690;2023-04-03T16:39:33;1.63;;;1.53;;
16139;SDS011;8175;49.326;12.690;2023-04-03T16:41:59;2.10;;;1.50;;
16139;SDS011;8175;49.326;12.690;2023-04-03T16:44:25;1.40;;;1.30;;
16139;SDS011;8175;49.326;12.690;2023-04-03T16:46:51;1.73;;;1.30;;
16139;SDS011;8175;49.326;12.690;2023-04-03T16:49:16;1.63;;;1.47;;
16139;SDS011;8175;49.326;12.690;2023-04-03T16:51:42;2.60;;;1.67;;
16139;SDS011;8175;49.326;12.690;2023-04-03T16:54:08;2.20;;;1.90;;
16139;SDS011;8175;49.326;12.690;2023-04-03T16:56:35;2.63;;;1.60;;
16139;SDS011;8175;49.326;12.690;2023-04-03T16:59:01;2.17;;;1.80;;
16139;SDS011;8175;49.326;12.690;2023-04-03T17:01:27;3.10;;;1.50;;
16139;SDS011;8175;49.326;12.690;2023-04-03T17:03:52;1.87;;;1.67;;
16139;SDS011;8175;49.326;12.690;2023-04-03T17:06:19;2.27;;;1.50;;
16139;SDS011;8175;49.326;12.690;2023-04-03T17:08:48;4.17;;;2.13;;
16139;SDS011;8175;49.326;12.690;2023-04-03T17:11:15;4.13;;;1.80;;
16139;SDS011;8175;49.326;12.690;2023-04-03T17:13:41;1.60;;;1.50;;
16139;SDS011;8175;49.326;12.690;2023-04-03T17:16:11;2.53;;;1.40;;
16139;SDS011;8175;49.326;12.690;2023-04-03T17:18:39;1.97;;;1.77;;
16139;SDS011;8175;49.326;12.690;2023-04-03T17:21:05;2.47;;;2.27;;
16139;SDS011;8175;49.326;12.690;2023-04-03T17:23:32;2.03;;;1.87;;
16139;SDS011;8175;49.326;12.690;2023-04-03T17:26:00;2.10;;;1.90;;
16139;SDS011;8175;49.326;12.690;2023-04-03T17:28:26;3.87;;;2.60;;
16139;SDS011;8175;49.326;12.690;2023-04-03T17:30:56;2.90;;;1.90;;
16139;SDS011;8175;49.326;12.690;2023-04-03T17:33:23;3.30;;;2.23;;
16139;SDS011;8175;49.326;12.690;2023-04-03T17:35:50;2.33;;;1.93;;
16139;SDS011;8175;49.326;12.690;2023-04-03T17:38:16;4.40;;;3.97;;
16139;SDS011;8175;49.326;12.690;2023-04-03T17:40:42;3.13;;;1.93;;
16139;SDS011;8175;49.326;12.690;2023-04-03T17:43:09;4.73;;;2.23;;
16139;SDS011;8175;49.326;12.690;2023-04-03T17:45:36;3.73;;;1.67;;
16139;SDS011;8175;49.326;12.690;2023-04-03T17:48:02;2.77;;;2.20;;
16139;SDS011;8175;49.326;12.690;2023-04-03T17:50:28;2.00;;;1.80;;
16139;SDS011;8175;49.326;12.690;2023-04-03T17:52:54;3.20;;;2.03;;
16139;SDS011;8175;49.326;12.690;2023-04-03T17:55:19;3.63;;;2.20;;
16139;SDS011;8175;49.326;12.690;2023-04-03T17:57:45;3.20;;;2.00;;
16139;SDS011;8175;49.326;12.690;2023-04-03T18:00:11;2.60;;;1.87;;
16139;SDS011;8175;49.326;12.690;2023-04-03T18:02:37;1.93;;;1.80;;
16139;SDS011;8175;49.326;12.690;2023-04-03T18:07:36;3.63;;;2.10;;
16139;SDS011;8175;49.326;12.690;2023-04-03T18:10:04;2.07;;;1.80;;
16139;SDS011;8175;49.326;12.690;2023-04-03T18:12:33;4.53;;;1.60;;
16139;SDS011;8175;49.326;12.690;2023-04-03T18:15:00;2.97;;;1.97;;
16139;SDS011;8175;49.326;12.690;2023-04-03T18:17:26;4.03;;;1.87;;
16139;SDS011;8175;49.326;12.690;2023-04-03T18:19:52;2.47;;;1.90;;
16139;SDS011;8175;49.326;12.690;2023-04-03T18:22:18;2.43;;;1.70;;
16139;SDS011;8175;49.326;12.690;2023-04-03T18:24:47;2.97;;;1.63;;
16139;SDS011;8175;49.326;12.690;2023-04-03T18:27:14;1.60;;;1.50;;
16139;SDS011;8175;49.326;12.690;2023-04-03T18:29:43;2.20;;;2.00;;
16139;SDS011;8175;49.326;12.690;2023-04-03T18:32:12;2.37;;;1.70;;
16139;SDS011;8175;49.326;12.690;2023-04-03T18:34:39;2.27;;;1.87;;
16139;SDS011;8175;49.326;12.690;2023-04-03T18:37:05;2.20;;;1.60;;
16139;SDS011;8175;49.326;12.690;2023-04-03T18:39:31;2.47;;;1.70;;
16139;SDS011;8175;49.326;12.690;2023-04-03T18:41:58;1.70;;;1.60;;
16139;SDS011;8175;49.326;12.690;2023-04-03T18:44:29;2.17;;;1.83;;
16139;SDS011;8175;49.326;12.690;2023-04-03T18:46:56;2.07;;;1.80;;
16139;SDS011;8175;49.326;12.690;2023-04-03T18:49:24;2.43;;;1.87;;
16139;SDS011;8175;49.326;12.690;2023-04-03T18:51:53;2.10;;;1.90;;
16139;SDS011;8175;49.326;12.690;2023-04-03T18:54:18;2.57;;;2.10;;
16139;SDS011;8175;49.326;12.690;2023-04-03T18:56:45;3.40;;;2.00;;
16139;SDS011;8175;49.326;12.690;2023-04-03T18:59:11;2.37;;;1.97;;
16139;SDS011;8175;49.326;12.690;2023-04-03T19:01:37;2.47;;;1.40;;
16139;SDS011;8175;49.326;12.690;2023-04-03T19:04:03;1.67;;;1.50;;
16139;SDS011;8175;49.326;12.690;2023-04-03T19:06:31;2.07;;;1.67;;
16139;SDS011;8175;49.326;12.690;2023-04-03T19:08:58;5.63;;;3.37;;
16139;SDS011;8175;49.326;12.690;2023-04-03T19:11:24;2.87;;;1.80;;
16139;SDS011;8175;49.326;12.690;2023-04-03T19:13:51;2.00;;;1.80;;
16139;SDS011;8175;49.326;12.690;2023-04-03T19:16:16;1.50;;;1.40;;
16139;SDS011;8175;49.326;12.690;2023-04-03T19:18:42;3.23;;;2.03;;
16139;SDS011;8175;49.326;12.690;2023-04-03T19:21:08;1.87;;;1.67;;
16139;SDS011;8175;49.326;12.690;2023-04-03T19:23:34;2.63;;;1.63;;
16139;SDS011;8175;49.326;12.690;2023-04-03T19:26:01;5.00;;;2.23;;
16139;SDS011;8175;49.326;12.690;2023-04-03T19:28:29;4.03;;;1.90;;
16139;SDS011;8175;49.326;12.690;2023-04-03T19:30:54;2.70;;;1.70;;
16139;SDS011;8175;49.326;12.690;2023-04-03T19:33:21;3.67;;;2.23;;
16139;SDS011;8175;49.326;12.690;2023-04-03T19:35:48;2.47;;;2.27;;
16139;SDS011;8175;49.326;12.690;2023-04-03T19:38:13;2.87;;;1.93;;
16139;SDS011;8175;49.326;12.690;2023-04-03T19:40:39;3.20;;;2.10;;
16139;SDS011;8175;49.326;12.690;2023-04-03T19:43:09;2.40;;;2.20;;
16139;SDS011;8175;49.326;12.690;2023-04-03T19:45:35;4.37;;;1.97;;
16139;SDS011;8175;49.326;12.690;2023-04-03T19:48:02;2.67;;;1.90;;
16139;SDS011;8175;49.326;12.690;2023-04-03T19:50:30;2.67;;;1.90;;
16139;SDS011;8175;49.326;12.690;2023-04-03T19:52:57;2.23;;;2.03;;
16139;SDS011;8175;49.326;12.690;2023-04-03T19:55:23;1.70;;;1.60;;
16139;SDS011;8175;49.326;12.690;2023-04-03T19:57:48;2.40;;;2.20;;
16139;SDS011;8175;49.326;12.690;2023-04-03T20:00:14;3.30;;;1.80;;
16139;SDS011;8175;49.326;12.690;2023-04-03T20:02:40;2.40;;;2.07;;
16139;SDS011;8175;49.326;12.690;2023-04-03T20:05:06;3.83;;;2.50;;
16139;SDS011;8175;49.326;12.690;2023-04-03T20:07:32;3.07;;;2.00;;
16139;SDS011;8175;49.326;12.690;2023-04-03T20:09:57;2.90;;;1.70;;
16139;SDS011;8175;49.326;12.690;2023-04-03T20:12:23;4.07;;;2.03;;
16139;SDS011;8175;49.326;12.690;2023-04-03T20:14:49;1.90;;;1.80;;
16139;SDS011;8175;49.326;12.690;2023-04-03T20:17:15;3.03;;;1.97;;
16139;SDS011;8175;49.326;12.690;2023-04-03T20:19:41;2.50;;;1.60;;
16139;SDS011;8175;49.326;12.690;2023-04-03T20:22:06;1.73;;;1.60;;
16139;SDS011;8175;49.326;12.690;2023-04-03T20:24:32;2.80;;;1.50;;
16139;SDS011;8175;49.326;12.690;2023-04-03T20:26:58;2.90;;;2.20;;
16139;SDS011;8175;49.326;12.690;2023-04-03T20:29:26;2.13;;;1.77;;
16139;SDS011;8175;49.326;12.690;2023-04-03T20:31:52;2.77;;;1.73;;
16139;SDS011;8175;49.326;12.690;2023-04-03T20:34:19;2.33;;;2.13;;
16139;SDS011;8175;49.326;12.690;2023-04-03T20:36:45;2.63;;;2.00;;
16139;SDS011;8175;49.326;12.690;2023-04-03T20:39:11;6.20;;;2.47;;
16139;SDS011;8175;49.326;12.690;2023-04-03T20:41:38;4.40;;;1.97;;
16139;SDS011;8175;49.326;12.690;2023-04-03T20:44:04;2.20;;;1.80;;
16139;SDS011;8175;49.326;12.690;2023-04-03T20:46:30;2.50;;;2.10;;
16139;SDS011;8175;49.326;12.690;2023-04-03T20:48:56;2.20;;;1.60;;
16139;SDS011;8175;49.326;12.690;2023-04-03T20:51:23;2.90;;;2.27;;
16139;SDS011;8175;49.326;12.690;2023-04-03T20:53:49;2.57;;;1.80;;
16139;SDS011;8175;49.326;12.690;2023-04-03T20:56:16;3.43;;;2.17;;
16139;SDS011;8175;49.326;12.690;2023-04-03T20:58:41;2.57;;;2.37;;
16139;SDS011;8175;49.326;12.690;2023-04-03T21:01:21;2.57;;;1.73;;
16139;SDS011;8175;49.326;12.690;2023-04-03T21:03:48;3.73;;;2.23;;
16139;SDS011;8175;49.326;12.690;2023-04-03T21:20:53;2.73;;;1.77;;
16139;SDS011;8175;49.326;12.690;2023-04-03T21:23:19;1.50;;;1.40;;
16139;SDS011;8175;49.326;12.690;2023-04-03T21:25:48;2.03;;;1.93;;
16139;SDS011;8175;49.326;12.690;2023-04-03T21:28:14;1.83;;;1.40;;
16139;SDS011;8175;49.326;12.690;2023-04-03T21:30:40;2.07;;;1.70;;
16139;SDS011;8175;49.326;12.690;2023-04-03T21:33:05;4.60;;;3.03;;
16139;SDS011;8175;49.326;12.690;2023-04-03T21:35:31;3.77;;;2.30;;
16139;SDS011;8175;49.326;12.690;2023-04-03T21:37:57;4.77;;;3.03;;
16139;SDS011;8175;49.326;12.690;2023-04-03T21:40:23;4.60;;;2.83;;
16139;SDS011;8175;49.326;12.690;2023-04-03T21:42:53;2.53;;;1.90;;
16139;SDS011;8175;49.326;12.690;2023-04-03T21:45:19;1.63;;;1.53;;
16139;SDS011;8175;49.326;12.690;2023-04-03T21:47:45;1.80;;;1.70;;
16139;SDS011;8175;49.326;12.690;2023-04-03T21:50:10;4.27;;;1.87;;
16139;SDS011;8175;49.326;12.690;2023-04-03T21:52:36;2.03;;;1.73;;
16139;SDS011;8175;49.326;12.690;2023-04-03T21:55:02;1.60;;;1.50;;
16139;SDS011;8175;49.326;12.690;2023-04-03T21:57:28;2.60;;;2.17;;
16139;SDS011;8175;49.326;12.690;2023-04-03T21:59:54;1.47;;;1.37;;
16139;SDS011;8175;49.326;12.690;2023-04-03T22:02:20;2.87;;;1.87;;
16139;SDS011;8175;49.326;12.690;2023-04-03T22:04:45;2.53;;;1.83;;
16139;SDS011;8175;49.326;12.690;2023-04-03T22:07:11;2.27;;;1.47;;
16139;SDS011;8175;49.326;12.690;2023-04-03T22:09:38;2.10;;;1.90;;
16139;SDS011;8175;49.326;12.690;2023-04-03T22:12:03;2.93;;;1.70;;
16139;SDS011;8175;49.326;12.690;2023-04-03T22:14:32;8.40;;;3.50;;